createdAt,value
2022-07-28T00:00:49.162Z,1014.71
2022-07-28T00:01:49.204Z,1014.68
2022-07-28T00:02:49.212Z,1014.65
2022-07-28T00:03:49.381Z,1014.63
2022-07-28T00:04:49.164Z,1014.66
2022-07-28T00:05:49.893Z,1014.63
2022-07-28T00:06:49.172Z,1014.64
2022-07-28T00:07:49.177Z,1014.63
2022-07-28T00:08:49.176Z,1014.59
2022-07-28T00:09:49.182Z,1014.66
2022-07-28T00:10:49.173Z,1014.64
2022-07-28T00:11:54.590Z,1014.64
2022-07-28T00:12:49.177Z,1014.60
2022-07-28T00:13:49.178Z,1014.60
2022-07-28T00:14:49.178Z,1014.61
2022-07-28T00:15:49.239Z,1014.64
2022-07-28T00:16:49.299Z,1014.58
2022-07-28T00:17:49.181Z,1014.58
2022-07-28T00:18:49.187Z,1014.60
2022-07-28T00:19:49.189Z,1014.60
2022-07-28T00:20:49.181Z,1014.61
2022-07-28T00:21:49.187Z,1014.61
2022-07-28T00:22:49.189Z,1014.62
2022-07-28T00:23:49.181Z,1014.56
2022-07-28T00:24:49.323Z,1014.56
2022-07-28T00:25:49.188Z,1014.55
2022-07-28T00:26:49.182Z,1014.55
2022-07-28T00:27:49.198Z,1014.49
2022-07-28T00:28:49.190Z,1014.51
2022-07-28T00:29:50.996Z,1014.50
2022-07-28T00:30:49.195Z,1014.51
2022-07-28T00:31:49.271Z,1014.54
2022-07-28T00:32:49.199Z,1014.52
2022-07-28T00:33:49.189Z,1014.53
2022-07-28T00:34:49.196Z,1014.57
2022-07-28T00:35:49.198Z,1014.55
2022-07-28T00:36:49.200Z,1014.54
2022-07-28T00:37:49.250Z,1014.54
2022-07-28T00:38:49.209Z,1014.56
2022-07-28T00:39:49.205Z,1014.52
2022-07-28T00:40:49.196Z,1014.49
2022-07-28T00:41:49.206Z,1014.49
2022-07-28T00:42:49.219Z,1014.47
2022-07-28T00:43:49.199Z,1014.47
2022-07-28T00:44:49.207Z,1014.46
2022-07-28T00:45:49.203Z,1014.45
2022-07-28T00:46:49.262Z,1014.45
2022-07-28T00:47:49.207Z,1014.45
2022-07-28T00:48:49.302Z,1014.44
2022-07-28T00:49:49.214Z,1014.45
2022-07-28T00:50:49.207Z,1014.44
2022-07-28T00:51:49.216Z,1014.42
2022-07-28T00:52:49.217Z,1014.46
2022-07-28T00:53:49.206Z,1014.45
2022-07-28T00:54:49.217Z,1014.46
2022-07-28T00:56:05.548Z,1014.46
2022-07-28T00:56:49.219Z,1014.49
2022-07-28T00:57:49.220Z,1014.47
2022-07-28T00:58:49.225Z,1014.41
2022-07-28T00:59:49.224Z,1014.43
2022-07-28T01:00:49.233Z,1014.40
2022-07-28T01:01:49.362Z,1014.38
2022-07-28T01:02:49.328Z,1014.44
2022-07-28T01:03:49.224Z,1014.36
2022-07-28T01:04:49.232Z,1014.43
2022-07-28T01:05:49.231Z,1014.38
2022-07-28T01:06:49.221Z,1014.39
2022-07-28T01:07:49.233Z,1014.37
2022-07-28T01:08:49.238Z,1014.34
2022-07-28T01:09:49.232Z,1014.34
2022-07-28T01:10:49.226Z,1014.26
2022-07-28T01:11:49.231Z,1014.34
2022-07-28T01:12:49.231Z,1014.30
2022-07-28T01:13:49.243Z,1014.29
2022-07-28T01:14:49.238Z,1014.32
2022-07-28T01:15:49.279Z,1014.34
2022-07-28T01:16:49.245Z,1014.36
2022-07-28T01:17:49.229Z,1014.31
2022-07-28T01:18:49.233Z,1014.31
2022-07-28T01:19:49.232Z,1014.31
2022-07-28T01:20:49.245Z,1014.36
2022-07-28T01:21:49.246Z,1014.30
2022-07-28T01:22:49.235Z,1014.35
2022-07-28T01:23:49.242Z,1014.31
2022-07-28T01:24:49.241Z,1014.32
2022-07-28T01:25:49.247Z,1014.33
2022-07-28T01:26:49.244Z,1014.36
2022-07-28T01:27:49.248Z,1014.32
2022-07-28T01:28:49.252Z,1014.33
2022-07-28T01:29:49.244Z,1014.34
2022-07-28T01:30:49.283Z,1014.34
2022-07-28T01:31:49.245Z,1014.35
2022-07-28T01:32:49.256Z,1014.35
2022-07-28T01:33:49.251Z,1014.36
2022-07-28T01:34:49.256Z,1014.33
2022-07-28T01:35:49.244Z,1014.34
2022-07-28T01:36:49.253Z,1014.34
2022-07-28T01:37:49.260Z,1014.35
2022-07-28T01:38:49.270Z,1014.36
2022-07-28T01:39:49.262Z,1014.33
2022-07-28T01:40:50.390Z,1014.38
2022-07-28T01:41:49.255Z,1014.35
2022-07-28T01:42:49.256Z,1014.30
2022-07-28T01:43:49.256Z,1014.32
2022-07-28T01:44:49.273Z,1014.31
2022-07-28T01:45:49.263Z,1014.31
2022-07-28T01:46:49.343Z,1014.30
2022-07-28T01:47:49.278Z,1014.28
2022-07-28T01:48:49.413Z,1014.29
2022-07-28T01:49:49.271Z,1014.26
2022-07-28T01:50:49.280Z,1014.23
2022-07-28T01:51:49.259Z,1014.25
2022-07-28T01:52:49.262Z,1014.22
2022-07-28T01:53:49.272Z,1014.19
2022-07-28T01:55:31.138Z,1014.14
2022-07-28T01:56:31.140Z,1014.14
2022-07-28T01:57:31.150Z,1014.20
2022-07-28T01:58:31.147Z,1014.14
2022-07-28T01:59:31.859Z,1014.14
2022-07-28T02:00:31.139Z,1014.11
2022-07-28T02:01:31.222Z,1014.09
2022-07-28T02:02:31.148Z,1014.09
2022-07-28T02:03:31.154Z,1014.05
2022-07-28T02:04:31.243Z,1014.07
2022-07-28T02:05:31.213Z,1014.09
2022-07-28T02:06:31.151Z,1014.01
2022-07-28T02:07:31.156Z,1014.05
2022-07-28T02:08:31.159Z,1014.06
2022-07-28T02:09:31.149Z,1014.00
2022-07-28T02:10:31.158Z,1013.97
2022-07-28T02:11:31.159Z,1013.99
2022-07-28T02:12:31.176Z,1013.99
2022-07-28T02:13:31.168Z,1013.99
2022-07-28T02:14:31.163Z,1013.98
2022-07-28T02:15:31.237Z,1013.97
2022-07-28T02:16:31.157Z,1013.90
2022-07-28T02:17:31.170Z,1013.95
2022-07-28T02:18:31.166Z,1013.94
2022-07-28T02:19:31.201Z,1013.89
2022-07-28T02:20:31.157Z,1013.90
2022-07-28T02:21:31.205Z,1013.89
2022-07-28T02:22:31.178Z,1013.83
2022-07-28T02:23:31.164Z,1013.85
2022-07-28T02:24:31.170Z,1013.82
2022-07-28T02:25:31.169Z,1013.80
2022-07-28T02:26:31.164Z,1013.83
2022-07-28T02:27:31.170Z,1013.81
2022-07-28T02:28:31.188Z,1013.81
2022-07-28T02:29:50.127Z,1013.78
2022-07-28T02:30:31.181Z,1013.79
2022-07-28T02:31:31.233Z,1013.78
2022-07-28T02:32:31.175Z,1013.81
2022-07-28T02:33:58.719Z,1013.81
2022-07-28T02:34:31.177Z,1013.79
2022-07-28T02:35:32.027Z,1013.79
2022-07-28T02:36:31.265Z,1013.74
2022-07-28T02:37:31.177Z,1013.72
2022-07-28T02:38:31.182Z,1013.73
2022-07-28T02:39:31.175Z,1013.72
2022-07-28T02:40:31.187Z,1013.73
2022-07-28T02:41:31.182Z,1013.73
2022-07-28T02:42:31.185Z,1013.70
2022-07-28T02:43:50.098Z,1013.71
2022-07-28T02:44:31.180Z,1013.66
2022-07-28T02:45:31.187Z,1013.69
2022-07-28T02:46:31.215Z,1013.71
2022-07-28T02:47:31.180Z,1013.71
2022-07-28T02:48:31.189Z,1013.70
2022-07-28T02:49:31.190Z,1013.70
2022-07-28T02:50:31.215Z,1013.69
2022-07-28T02:51:31.199Z,1013.69
2022-07-28T02:52:31.198Z,1013.67
2022-07-28T02:53:31.189Z,1013.68
2022-07-28T02:54:31.196Z,1013.71
2022-07-28T02:55:31.193Z,1013.72
2022-07-28T02:56:31.189Z,1013.73
2022-07-28T02:57:31.203Z,1013.78
2022-07-28T02:58:31.198Z,1013.81
2022-07-28T02:59:31.191Z,1013.78
2022-07-28T03:00:31.204Z,1013.80
2022-07-28T03:01:31.252Z,1013.76
2022-07-28T03:02:31.201Z,1013.79
2022-07-28T03:03:31.212Z,1013.79
2022-07-28T03:04:31.197Z,1013.81
2022-07-28T03:05:31.296Z,1013.82
2022-07-28T03:06:31.205Z,1013.82
2022-07-28T03:07:31.201Z,1013.85
2022-07-28T03:08:31.206Z,1013.88
2022-07-28T03:09:31.212Z,1013.88
2022-07-28T03:10:33.753Z,1013.83
2022-07-28T03:11:31.212Z,1013.87
2022-07-28T03:12:31.214Z,1013.87
2022-07-28T03:13:31.235Z,1013.84
2022-07-28T03:14:31.200Z,1013.85
2022-07-28T03:15:31.355Z,1013.82
2022-07-28T03:16:31.297Z,1013.87
2022-07-28T03:17:31.218Z,1013.85
2022-07-28T03:18:31.218Z,1013.84
2022-07-28T03:19:31.220Z,1013.85
2022-07-28T03:20:31.220Z,1013.83
2022-07-28T03:21:31.215Z,1013.80
2022-07-28T03:22:31.225Z,1013.82
2022-07-28T03:23:31.229Z,1013.78
2022-07-28T03:24:31.219Z,1013.77
2022-07-28T03:25:31.221Z,1013.73
2022-07-28T03:26:31.213Z,1013.81
2022-07-28T03:27:31.231Z,1013.81
2022-07-28T03:28:31.220Z,1013.76
2022-07-28T03:29:31.217Z,1013.74
2022-07-28T03:30:31.251Z,1013.75
2022-07-28T03:31:31.215Z,1013.75
2022-07-28T03:32:31.224Z,1013.75
2022-07-28T03:33:31.226Z,1013.74
2022-07-28T03:34:31.222Z,1013.72
2022-07-28T03:35:31.330Z,1013.76
2022-07-28T03:36:31.249Z,1013.76
2022-07-28T03:37:31.224Z,1013.77
2022-07-28T03:38:31.236Z,1013.83
2022-07-28T03:39:32.454Z,1013.81
2022-07-28T03:40:31.237Z,1013.87
2022-07-28T03:41:31.231Z,1013.82
2022-07-28T03:42:31.225Z,1013.86
2022-07-28T03:43:31.239Z,1013.88
2022-07-28T03:44:31.265Z,1013.84
2022-07-28T03:45:31.237Z,1013.86
2022-07-28T03:46:31.290Z,1013.87
2022-07-28T03:47:31.235Z,1013.85
2022-07-28T03:48:31.229Z,1013.85
2022-07-28T03:49:31.237Z,1013.83
2022-07-28T03:50:31.236Z,1013.84
2022-07-28T03:51:31.234Z,1013.80
2022-07-28T03:52:31.242Z,1013.83
2022-07-28T03:53:31.241Z,1013.84
2022-07-28T03:54:31.245Z,1013.85
2022-07-28T03:55:31.248Z,1013.89
2022-07-28T03:56:31.249Z,1013.88
2022-07-28T03:57:31.238Z,1013.90
2022-07-28T03:58:31.251Z,1013.90
2022-07-28T03:59:31.244Z,1013.92
2022-07-28T04:00:31.257Z,1013.92
2022-07-28T04:01:31.338Z,1013.90
2022-07-28T04:02:31.271Z,1013.93
2022-07-28T04:03:43.019Z,1013.85
2022-07-28T04:04:31.256Z,1013.85
2022-07-28T04:05:31.254Z,1013.85
2022-07-28T04:06:31.247Z,1013.82
2022-07-28T04:07:31.254Z,1013.79
2022-07-28T04:08:31.253Z,1013.79
2022-07-28T04:09:31.260Z,1013.76
2022-07-28T04:10:31.258Z,1013.72
2022-07-28T04:11:31.255Z,1013.76
2022-07-28T04:12:31.269Z,1013.72
2022-07-28T04:13:31.257Z,1013.72
2022-07-28T04:14:31.266Z,1013.72
2022-07-28T04:15:31.256Z,1013.68
2022-07-28T04:16:31.329Z,1013.69
2022-07-28T04:17:31.256Z,1013.71
2022-07-28T04:18:31.267Z,1013.70
2022-07-28T04:19:31.256Z,1013.71
2022-07-28T04:20:31.261Z,1013.68
2022-07-28T04:21:31.262Z,1013.66
2022-07-28T04:22:31.265Z,1013.67
2022-07-28T04:23:31.263Z,1013.67
2022-07-28T04:24:31.274Z,1013.61
2022-07-28T04:25:31.267Z,1013.67
2022-07-28T04:26:31.269Z,1013.66
2022-07-28T04:27:31.273Z,1013.68
2022-07-28T04:28:31.262Z,1013.65
2022-07-28T04:29:31.272Z,1013.65
2022-07-28T04:30:31.319Z,1013.66
2022-07-28T04:31:31.487Z,1013.66
2022-07-28T04:32:31.272Z,1013.66
2022-07-28T04:33:31.275Z,1013.62
2022-07-28T04:34:31.283Z,1013.67
2022-07-28T04:35:31.287Z,1013.67
2022-07-28T04:36:31.298Z,1013.65
2022-07-28T04:37:32.344Z,1013.65
2022-07-28T04:38:31.275Z,1013.68
2022-07-28T04:39:31.277Z,1013.67
2022-07-28T04:40:31.282Z,1013.67
2022-07-28T04:41:31.285Z,1013.70
2022-07-28T04:42:31.276Z,1013.73
2022-07-28T04:43:31.276Z,1013.76
2022-07-28T04:44:31.305Z,1013.75
2022-07-28T04:45:31.341Z,1013.76
2022-07-28T04:46:31.329Z,1013.75
2022-07-28T04:47:31.278Z,1013.77
2022-07-28T04:48:31.280Z,1013.75
2022-07-28T04:49:31.284Z,1013.75
2022-07-28T04:50:31.291Z,1013.74
2022-07-28T04:51:31.289Z,1013.77
2022-07-28T04:52:31.293Z,1013.81
2022-07-28T04:53:31.282Z,1013.78
2022-07-28T04:54:31.295Z,1013.78
2022-07-28T04:55:31.291Z,1013.77
2022-07-28T04:56:31.295Z,1013.75
2022-07-28T04:57:31.292Z,1013.74
2022-07-28T04:58:31.306Z,1013.74
2022-07-28T04:59:31.297Z,1013.74
2022-07-28T05:00:31.298Z,1013.74
2022-07-28T05:01:31.348Z,1013.74
2022-07-28T05:02:31.308Z,1013.75
2022-07-28T05:03:36.037Z,1013.75
2022-07-28T05:04:31.358Z,1013.76
2022-07-28T05:05:31.294Z,1013.80
2022-07-28T05:06:31.296Z,1013.81
2022-07-28T05:07:31.296Z,1013.81
2022-07-28T05:08:31.308Z,1013.80
2022-07-28T05:09:31.307Z,1013.82
2022-07-28T05:10:31.310Z,1013.78
2022-07-28T05:11:31.302Z,1013.76
2022-07-28T05:12:31.305Z,1013.76
2022-07-28T05:13:33.988Z,1013.74
2022-07-28T05:14:31.299Z,1013.73
2022-07-28T05:15:31.317Z,1013.76
2022-07-28T05:16:31.361Z,1013.76
2022-07-28T05:17:31.305Z,1013.70
2022-07-28T05:18:31.313Z,1013.72
2022-07-28T05:19:31.318Z,1013.71
2022-07-28T05:20:31.321Z,1013.67
2022-07-28T05:21:31.306Z,1013.70
2022-07-28T05:22:31.315Z,1013.65
2022-07-28T05:23:31.308Z,1013.65
2022-07-28T05:24:31.323Z,1013.65
2022-07-28T05:25:31.319Z,1013.65
2022-07-28T05:26:31.334Z,1013.67
2022-07-28T05:27:31.315Z,1013.66
2022-07-28T05:28:31.327Z,1013.68
2022-07-28T05:29:42.484Z,1013.63
2022-07-28T05:30:31.315Z,1013.64
2022-07-28T05:31:31.375Z,1013.64
2022-07-28T05:32:31.328Z,1013.64
2022-07-28T05:33:31.985Z,1013.62
2022-07-28T05:34:31.331Z,1013.63
2022-07-28T05:35:31.317Z,1013.63
2022-07-28T05:36:31.334Z,1013.57
2022-07-28T05:37:31.329Z,1013.57
2022-07-28T05:38:31.336Z,1013.63
2022-07-28T05:39:31.329Z,1013.59
2022-07-28T05:40:31.325Z,1013.56
2022-07-28T05:41:31.328Z,1013.61
2022-07-28T05:42:31.330Z,1013.61
2022-07-28T05:43:31.341Z,1013.57
2022-07-28T05:44:37.232Z,1013.58
2022-07-28T05:45:31.385Z,1013.56
2022-07-28T05:46:31.335Z,1013.56
2022-07-28T05:47:31.337Z,1013.54
2022-07-28T05:48:31.350Z,1013.54
2022-07-28T05:49:31.345Z,1013.58
2022-07-28T05:50:31.342Z,1013.59
2022-07-28T05:51:31.344Z,1013.58
2022-07-28T05:52:31.360Z,1013.61
2022-07-28T05:53:31.336Z,1013.59
2022-07-28T05:54:31.345Z,1013.60
2022-07-28T05:55:31.341Z,1013.60
2022-07-28T05:56:31.338Z,1013.58
2022-07-28T05:57:31.354Z,1013.60
2022-07-28T05:58:31.353Z,1013.59
2022-07-28T05:59:31.350Z,1013.60
2022-07-28T06:00:31.359Z,1013.60
2022-07-28T06:01:31.402Z,1013.62
2022-07-28T06:02:31.428Z,1013.62
2022-07-28T06:03:31.344Z,1013.63
2022-07-28T06:04:34.525Z,1013.67
2022-07-28T06:05:31.347Z,1013.63
2022-07-28T06:07:13.231Z,1013.61
2022-07-28T06:08:13.228Z,1013.61
2022-07-28T06:09:13.222Z,1013.58
2022-07-28T06:10:13.232Z,1013.58
2022-07-28T06:11:22.300Z,1013.64
2022-07-28T06:12:13.229Z,1013.63
2022-07-28T06:13:13.232Z,1013.62
2022-07-28T06:14:13.440Z,1013.66
2022-07-28T06:15:13.239Z,1013.67
2022-07-28T06:16:13.519Z,1013.67
2022-07-28T06:17:13.243Z,1013.65
2022-07-28T06:18:13.234Z,1013.64
2022-07-28T06:19:13.244Z,1013.65
2022-07-28T06:20:13.242Z,1013.63
2022-07-28T06:21:13.236Z,1013.64
2022-07-28T06:22:13.253Z,1013.59
2022-07-28T06:23:13.244Z,1013.63
2022-07-28T06:24:13.555Z,1013.62
2022-07-28T06:25:13.249Z,1013.62
2022-07-28T06:26:13.271Z,1013.61
2022-07-28T06:27:13.248Z,1013.65
2022-07-28T06:28:13.244Z,1013.63
2022-07-28T06:29:13.256Z,1013.60
2022-07-28T06:30:13.242Z,1013.62
2022-07-28T06:31:13.352Z,1013.63
2022-07-28T06:32:13.259Z,1013.64
2022-07-28T06:33:17.165Z,1013.65
2022-07-28T06:34:13.553Z,1013.64
2022-07-28T06:35:13.268Z,1013.70
2022-07-28T06:36:13.262Z,1013.68
2022-07-28T06:37:13.261Z,1013.65
2022-07-28T06:38:13.254Z,1013.65
2022-07-28T06:39:13.262Z,1013.71
2022-07-28T06:40:13.274Z,1013.71
2022-07-28T06:41:13.259Z,1013.71
2022-07-28T06:42:13.264Z,1013.70
2022-07-28T06:43:13.270Z,1013.69
2022-07-28T06:44:13.718Z,1013.67
2022-07-28T06:45:19.648Z,1013.66
2022-07-28T06:46:13.271Z,1013.68
2022-07-28T06:47:13.308Z,1013.67
2022-07-28T06:48:13.273Z,1013.71
2022-07-28T06:49:13.717Z,1013.71
2022-07-28T06:50:24.576Z,1013.74
2022-07-28T06:51:13.273Z,1013.71
2022-07-28T06:52:13.289Z,1013.70
2022-07-28T06:53:13.291Z,1013.70
2022-07-28T06:54:13.614Z,1013.68
2022-07-28T06:55:13.281Z,1013.71
2022-07-28T06:56:13.842Z,1013.72
2022-07-28T06:57:13.285Z,1013.71
2022-07-28T06:58:13.285Z,1013.74
2022-07-28T06:59:13.674Z,1013.78
2022-07-28T07:00:13.290Z,1013.79
2022-07-28T07:01:13.374Z,1013.80
2022-07-28T07:02:13.286Z,1013.73
2022-07-28T07:03:13.289Z,1013.72
2022-07-28T07:04:13.456Z,1013.77
2022-07-28T07:05:13.301Z,1013.76
2022-07-28T07:06:13.299Z,1013.72
2022-07-28T07:07:16.859Z,1013.74
2022-07-28T07:08:13.292Z,1013.75
2022-07-28T07:09:13.302Z,1013.79
2022-07-28T07:10:13.309Z,1013.77
2022-07-28T07:11:13.314Z,1013.77
2022-07-28T07:12:13.305Z,1013.80
2022-07-28T07:13:13.919Z,1013.84
2022-07-28T07:14:13.837Z,1013.80
2022-07-28T07:15:13.302Z,1013.81
2022-07-28T07:16:13.366Z,1013.84
2022-07-28T07:17:13.311Z,1013.87
2022-07-28T07:18:13.306Z,1013.82
2022-07-28T07:19:15.855Z,1013.79
2022-07-28T07:20:13.312Z,1013.81
2022-07-28T07:21:13.317Z,1013.76
2022-07-28T07:22:13.315Z,1013.76
2022-07-28T07:23:13.327Z,1013.74
2022-07-28T07:24:13.658Z,1013.72
2022-07-28T07:25:13.334Z,1013.71
2022-07-28T07:26:13.312Z,1013.72
2022-07-28T07:27:13.325Z,1013.75
2022-07-28T07:28:13.332Z,1013.71
2022-07-28T07:29:13.335Z,1013.69
2022-07-28T07:30:13.329Z,1013.68
2022-07-28T07:31:13.377Z,1013.67
2022-07-28T07:32:13.335Z,1013.65
2022-07-28T07:33:13.327Z,1013.65
2022-07-28T07:34:13.652Z,1013.68
2022-07-28T07:35:13.338Z,1013.68
2022-07-28T07:36:13.329Z,1013.64
2022-07-28T07:37:13.348Z,1013.63
2022-07-28T07:38:13.334Z,1013.62
2022-07-28T07:39:13.347Z,1013.63
2022-07-28T07:40:13.344Z,1013.62
2022-07-28T07:41:13.357Z,1013.62
2022-07-28T07:42:13.346Z,1013.63
2022-07-28T07:43:13.349Z,1013.63
2022-07-28T07:44:13.630Z,1013.58
2022-07-28T07:45:13.358Z,1013.63
2022-07-28T07:46:13.407Z,1013.61
2022-07-28T07:47:13.361Z,1013.64
2022-07-28T07:48:13.376Z,1013.60
2022-07-28T07:49:13.423Z,1013.58
2022-07-28T07:50:13.379Z,1013.62
2022-07-28T07:51:15.568Z,1013.57
2022-07-28T07:52:13.403Z,1013.58
2022-07-28T07:53:13.368Z,1013.56
2022-07-28T07:54:13.591Z,1013.54
2022-07-28T07:55:13.372Z,1013.52
2022-07-28T07:56:13.376Z,1013.52
2022-07-28T07:57:13.373Z,1013.51
2022-07-28T07:58:13.379Z,1013.51
2022-07-28T07:59:13.386Z,1013.50
2022-07-28T08:00:28.075Z,1013.49
2022-07-28T08:01:13.383Z,1013.48
2022-07-28T08:02:13.479Z,1013.47
2022-07-28T08:03:13.395Z,1013.48
2022-07-28T08:04:13.722Z,1013.47
2022-07-28T08:05:13.391Z,1013.48
2022-07-28T08:06:13.395Z,1013.47
2022-07-28T08:07:13.398Z,1013.46
2022-07-28T08:08:13.407Z,1013.44
2022-07-28T08:09:13.399Z,1013.44
2022-07-28T08:10:13.401Z,1013.44
2022-07-28T08:11:13.411Z,1013.48
2022-07-28T08:12:13.414Z,1013.48
2022-07-28T08:13:13.404Z,1013.44
2022-07-28T08:14:13.724Z,1013.41
2022-07-28T08:15:13.413Z,1013.43
2022-07-28T08:16:13.475Z,1013.45
2022-07-28T08:17:13.420Z,1013.44
2022-07-28T08:18:13.420Z,1013.39
2022-07-28T08:19:13.422Z,1013.37
2022-07-28T08:20:13.420Z,1013.36
2022-07-28T08:21:13.425Z,1013.38
2022-07-28T08:22:13.429Z,1013.40
2022-07-28T08:23:13.439Z,1013.40
2022-07-28T08:24:13.746Z,1013.38
2022-07-28T08:25:13.434Z,1013.39
2022-07-28T08:26:13.433Z,1013.31
2022-07-28T08:27:13.442Z,1013.33
2022-07-28T08:28:13.444Z,1013.27
2022-07-28T08:29:13.446Z,1013.25
2022-07-28T08:30:13.453Z,1013.22
2022-07-28T08:31:13.478Z,1013.21
2022-07-28T08:32:13.457Z,1013.22
2022-07-28T08:33:13.462Z,1013.15
2022-07-28T08:34:13.461Z,1013.18
2022-07-28T08:35:32.317Z,1013.15
2022-07-28T08:36:13.464Z,1013.13
2022-07-28T08:37:13.464Z,1013.13
2022-07-28T08:38:13.466Z,1013.17
2022-07-28T08:39:13.465Z,1013.16
2022-07-28T08:40:13.469Z,1013.16
2022-07-28T08:41:13.487Z,1013.16
2022-07-28T08:42:13.470Z,1013.17
2022-07-28T08:43:13.466Z,1013.17
2022-07-28T08:44:13.794Z,1013.17
2022-07-28T08:45:13.477Z,1013.13
2022-07-28T08:46:13.534Z,1013.17
2022-07-28T08:47:13.506Z,1013.19
2022-07-28T08:48:13.483Z,1013.11
2022-07-28T08:49:14.833Z,1013.16
2022-07-28T08:50:13.483Z,1013.10
2022-07-28T08:51:13.498Z,1013.09
2022-07-28T08:52:13.507Z,1013.13
2022-07-28T08:53:13.498Z,1013.12
2022-07-28T08:54:13.721Z,1013.12
2022-07-28T08:55:19.114Z,1013.11
2022-07-28T08:56:13.506Z,1013.12
2022-07-28T08:57:13.510Z,1013.12
2022-07-28T08:58:13.523Z,1013.09
2022-07-28T08:59:13.515Z,1013.04
2022-07-28T09:00:13.505Z,1013.07
2022-07-28T09:01:13.510Z,1013.08
2022-07-28T09:02:13.617Z,1013.05
2022-07-28T09:03:13.656Z,1013.05
2022-07-28T09:04:13.791Z,1013.00
2022-07-28T09:05:13.517Z,1013.02
2022-07-28T09:06:13.522Z,1013.01
2022-07-28T09:07:13.533Z,1013.04
2022-07-28T09:08:13.535Z,1012.99
2022-07-28T09:09:13.542Z,1013.08
2022-07-28T09:10:13.545Z,1013.06
2022-07-28T09:11:13.539Z,1013.08
2022-07-28T09:12:13.537Z,1013.06
2022-07-28T09:13:13.696Z,1013.09
2022-07-28T09:14:13.905Z,1013.09
2022-07-28T09:15:13.551Z,1013.08
2022-07-28T09:16:13.635Z,1013.07
2022-07-28T09:17:13.547Z,1013.05
2022-07-28T09:18:13.553Z,1013.06
2022-07-28T09:19:13.550Z,1013.02
2022-07-28T09:20:13.558Z,1013.03
2022-07-28T09:21:13.559Z,1012.95
2022-07-28T09:22:13.571Z,1012.99
2022-07-28T09:23:43.309Z,1013.02
2022-07-28T09:24:13.881Z,1013.02
2022-07-28T09:25:13.564Z,1012.99
2022-07-28T09:26:13.578Z,1012.97
2022-07-28T09:27:13.585Z,1013.02
2022-07-28T09:28:13.574Z,1013.00
2022-07-28T09:29:13.580Z,1012.98
2022-07-28T09:30:13.589Z,1012.98
2022-07-28T09:31:13.640Z,1013.05
2022-07-28T09:32:13.580Z,1012.96
2022-07-28T09:33:41.984Z,1012.96
2022-07-28T09:34:13.801Z,1012.91
2022-07-28T09:35:13.587Z,1012.91
2022-07-28T09:36:13.600Z,1012.93
2022-07-28T09:37:13.597Z,1012.92
2022-07-28T09:38:13.602Z,1012.92
2022-07-28T09:39:13.600Z,1012.91
2022-07-28T09:40:13.607Z,1012.90
2022-07-28T09:41:13.610Z,1012.83
2022-07-28T09:42:13.607Z,1012.88
2022-07-28T09:43:13.614Z,1012.88
2022-07-28T09:44:13.873Z,1012.84
2022-07-28T09:45:22.887Z,1012.79
2022-07-28T09:46:13.717Z,1012.76
2022-07-28T09:47:13.883Z,1012.83
2022-07-28T09:48:13.879Z,1012.82
2022-07-28T09:49:13.760Z,1012.79
2022-07-28T09:50:13.620Z,1012.79
2022-07-28T09:51:13.634Z,1012.81
2022-07-28T09:52:13.632Z,1012.79
2022-07-28T09:53:13.621Z,1012.79
2022-07-28T09:54:14.054Z,1012.75
2022-07-28T09:55:13.634Z,1012.73
2022-07-28T09:56:13.642Z,1012.72
2022-07-28T09:57:13.640Z,1012.71
2022-07-28T09:58:13.646Z,1012.73
2022-07-28T09:59:14.980Z,1012.71
2022-07-28T10:00:13.643Z,1012.72
2022-07-28T10:01:13.722Z,1012.77
2022-07-28T10:02:13.836Z,1012.74
2022-07-28T10:03:13.782Z,1012.79
2022-07-28T10:04:13.667Z,1012.75
2022-07-28T10:05:13.646Z,1012.73
2022-07-28T10:06:13.658Z,1012.65
2022-07-28T10:07:13.660Z,1012.66
2022-07-28T10:08:13.663Z,1012.63
2022-07-28T10:09:13.676Z,1012.57
2022-07-28T10:10:13.689Z,1012.62
2022-07-28T10:11:13.670Z,1012.59
2022-07-28T10:12:13.685Z,1012.63
2022-07-28T10:13:13.663Z,1012.62
2022-07-28T10:14:14.133Z,1012.63
2022-07-28T10:15:13.683Z,1012.62
2022-07-28T10:16:13.719Z,1012.56
2022-07-28T10:17:13.675Z,1012.56
2022-07-28T10:18:13.686Z,1012.47
2022-07-28T10:19:13.700Z,1012.43
2022-07-28T10:20:13.696Z,1012.42
2022-07-28T10:21:13.685Z,1012.42
2022-07-28T10:22:13.690Z,1012.44
2022-07-28T10:23:13.694Z,1012.44
2022-07-28T10:24:14.041Z,1012.42
2022-07-28T10:25:13.694Z,1012.36
2022-07-28T10:26:13.693Z,1012.43
2022-07-28T10:27:13.698Z,1012.45
2022-07-28T10:28:13.695Z,1012.41
2022-07-28T10:29:13.696Z,1012.44
2022-07-28T10:30:13.694Z,1012.44
2022-07-28T10:31:13.742Z,1012.46
2022-07-28T10:32:13.719Z,1012.42
2022-07-28T10:33:13.705Z,1012.38
2022-07-28T10:34:16.300Z,1012.38
2022-07-28T10:35:13.701Z,1012.37
2022-07-28T10:36:13.711Z,1012.34
2022-07-28T10:37:13.714Z,1012.34
2022-07-28T10:38:14.102Z,1012.32
2022-07-28T10:39:13.714Z,1012.29
2022-07-28T10:40:13.720Z,1012.28
2022-07-28T10:41:13.718Z,1012.30
2022-07-28T10:42:13.723Z,1012.32
2022-07-28T10:43:13.738Z,1012.28
2022-07-28T10:44:14.152Z,1012.30
2022-07-28T10:45:13.734Z,1012.28
2022-07-28T10:46:16.238Z,1012.28
2022-07-28T10:47:18.312Z,1012.28
2022-07-28T10:48:13.724Z,1012.29
2022-07-28T10:49:13.779Z,1012.33
2022-07-28T10:50:13.737Z,1012.29
2022-07-28T10:51:13.743Z,1012.29
2022-07-28T10:52:37.050Z,1012.28
2022-07-28T10:53:13.737Z,1012.29
2022-07-28T10:54:17.497Z,1012.22
2022-07-28T10:55:13.734Z,1012.29
2022-07-28T10:56:13.753Z,1012.23
2022-07-28T10:57:13.745Z,1012.23
2022-07-28T10:58:13.746Z,1012.23
2022-07-28T10:59:13.747Z,1012.24
2022-07-28T11:00:20.361Z,1012.25
2022-07-28T11:01:32.418Z,1012.27
2022-07-28T11:02:13.853Z,1012.24
2022-07-28T11:03:14.382Z,1012.20
2022-07-28T11:04:14.040Z,1012.24
2022-07-28T11:05:13.761Z,1012.24
2022-07-28T11:06:13.758Z,1012.20
2022-07-28T11:07:13.765Z,1012.21
2022-07-28T11:08:13.772Z,1012.23
2022-07-28T11:09:13.765Z,1012.25
2022-07-28T11:10:13.835Z,1012.27
2022-07-28T11:11:13.766Z,1012.24
2022-07-28T11:12:13.767Z,1012.20
2022-07-28T11:13:14.298Z,1012.19
2022-07-28T11:14:14.043Z,1012.17
2022-07-28T11:15:15.719Z,1012.13
2022-07-28T11:16:13.861Z,1012.16
2022-07-28T11:17:13.829Z,1012.12
2022-07-28T11:18:13.770Z,1012.13
2022-07-28T11:19:36.655Z,1012.15
2022-07-28T11:20:24.862Z,1012.13
2022-07-28T11:21:16.548Z,1012.09
2022-07-28T11:22:13.788Z,1012.11
2022-07-28T11:23:13.784Z,1012.04
2022-07-28T11:24:17.865Z,1012.04
2022-07-28T11:25:19.233Z,1012.00
2022-07-28T11:26:13.794Z,1012.05
2022-07-28T11:27:13.795Z,1012.02
2022-07-28T11:28:13.792Z,1012.01
2022-07-28T11:29:13.801Z,1012.01
2022-07-28T11:30:13.816Z,1012.03
2022-07-28T11:31:13.912Z,1012.05
2022-07-28T11:32:13.795Z,1012.04
2022-07-28T11:33:13.805Z,1012.02
2022-07-28T11:34:14.237Z,1011.97
2022-07-28T11:35:13.805Z,1011.99
2022-07-28T11:36:13.815Z,1011.97
2022-07-28T11:37:15.068Z,1011.89
2022-07-28T11:38:13.818Z,1011.85
2022-07-28T11:39:13.825Z,1011.84
2022-07-28T11:40:13.805Z,1011.84
2022-07-28T11:41:13.812Z,1011.85
2022-07-28T11:42:13.813Z,1011.82
2022-07-28T11:43:13.819Z,1011.85
2022-07-28T11:44:14.303Z,1011.84
2022-07-28T11:45:13.826Z,1011.82
2022-07-28T11:46:13.880Z,1011.84
2022-07-28T11:47:13.817Z,1011.77
2022-07-28T11:48:13.859Z,1011.78
2022-07-28T11:49:14.773Z,1011.74
2022-07-28T11:50:13.826Z,1011.78
2022-07-28T11:51:13.860Z,1011.77
2022-07-28T11:52:13.962Z,1011.79
2022-07-28T11:53:13.834Z,1011.80
2022-07-28T11:54:14.256Z,1011.81
2022-07-28T11:55:13.857Z,1011.80
2022-07-28T11:56:13.858Z,1011.81
2022-07-28T11:57:13.962Z,1011.76
2022-07-28T11:58:13.843Z,1011.77
2022-07-28T11:59:13.954Z,1011.72
2022-07-28T12:00:13.853Z,1011.73
2022-07-28T12:01:18.061Z,1011.74
2022-07-28T12:02:13.922Z,1011.65
2022-07-28T12:03:13.843Z,1011.64
2022-07-28T12:04:14.259Z,1011.69
2022-07-28T12:05:13.986Z,1011.69
2022-07-28T12:06:13.853Z,1011.67
2022-07-28T12:07:13.869Z,1011.64